Time;durP1;ratioP1;P1;durP2;ratioP2;P2;SDS_P1;SDS_P2;PMS_P1;PMS_P2;Temp;Humidity;BMP_temperature;BMP_pressure;BME280_temperature;BME280_humidity;BME280_pressure;Samples;Min_cycle;Max_cycle;Signal;HPM_P1;HPM_P2
2022/12/27 00:00:22;;;;;;;16.02;3.33;;;4.90;99.90;;;;;;2562435;23;20354;-76
2022/12/27 00:01:22;;;;;;;21.27;4.07;;;4.80;99.90;;;;;;2564517;23;20153;-76
2022/12/27 00:02:23;;;;;;;16.08;3.95;;;4.80;99.90;;;;;;2561321;23;19993;-76
2022/12/27 00:03:23;;;;;;;19.88;4.05;;;4.80;99.90;;;;;;2560970;23;20439;-76
2022/12/27 00:04:25;;;;;;;17.83;4.00;;;4.80;99.90;;;;;;2562119;23;20008;-75
2022/12/27 00:05:26;;;;;;;13.50;3.95;;;4.80;99.90;;;;;;2551301;23;20005;-76
2022/12/27 00:06:27;;;;;;;14.70;3.85;;;4.80;99.90;;;;;;2549120;23;20055;-76
2022/12/27 00:07:27;;;;;;;10.93;3.47;;;4.80;99.90;;;;;;2549094;23;20421;-76
2022/12/27 00:08:28;;;;;;;10.20;3.25;;;4.80;99.90;;;;;;2549158;23;20004;-77
2022/12/27 00:09:29;;;;;;;12.73;3.03;;;4.80;99.90;;;;;;2562297;23;20016;-76
2022/12/27 00:10:30;;;;;;;16.83;3.70;;;4.80;99.90;;;;;;2549103;23;20438;-76
2022/12/27 00:11:31;;;;;;;10.95;3.42;;;4.90;99.90;;;;;;2550745;23;20461;-77
2022/12/27 00:12:32;;;;;;;9.82;2.90;;;4.90;99.90;;;;;;2562156;23;20012;-77
2022/12/27 00:13:32;;;;;;;10.88;3.22;;;4.90;99.90;;;;;;2562206;23;20412;-77
2022/12/27 00:14:33;;;;;;;9.52;3.17;;;4.90;99.90;;;;;;2562293;23;20023;-76
2022/12/27 00:15:34;;;;;;;14.55;3.50;;;4.90;99.90;;;;;;2562453;23;20012;-76
2022/12/27 00:16:35;;;;;;;12.82;3.45;;;4.90;99.90;;;;;;2564534;23;20037;-76
2022/12/27 00:17:36;;;;;;;13.30;3.40;;;4.90;99.90;;;;;;2563672;23;20008;-77
2022/12/27 00:18:37;;;;;;;11.02;3.33;;;4.90;99.90;;;;;;2548881;23;20454;-77
2022/12/27 00:19:38;;;;;;;9.70;3.20;;;4.90;99.90;;;;;;2548986;23;20028;-77
2022/12/27 00:20:39;;;;;;;16.90;3.50;;;4.90;99.90;;;;;;2551064;23;20051;-76
2022/12/27 00:21:39;;;;;;;20.67;3.90;;;4.90;99.90;;;;;;2549077;23;20028;-76
2022/12/27 00:22:40;;;;;;;16.10;3.70;;;4.90;99.90;;;;;;2548615;23;20016;-76
2022/12/27 00:23:44;;;;;;;17.25;3.45;;;4.80;99.90;;;;;;2549007;23;20009;-74
2022/12/27 00:24:46;;;;;;;14.13;3.13;;;4.80;99.90;;;;;;2562293;23;20364;-75
2022/12/27 00:25:46;;;;;;;15.40;3.58;;;4.80;99.90;;;;;;2562102;23;20008;-75
2022/12/27 00:26:47;;;;;;;12.32;3.10;;;4.80;99.90;;;;;;2562344;23;20434;-75
2022/12/27 00:27:47;;;;;;;17.00;3.50;;;4.80;99.90;;;;;;2551076;23;20019;-75
2022/12/27 00:28:48;;;;;;;10.82;3.08;;;4.70;99.90;;;;;;2536719;23;20013;-75
2022/12/27 00:29:49;;;;;;;11.02;3.05;;;4.80;99.90;;;;;;2549206;23;20021;-76
2022/12/27 00:30:56;;;;;;;16.20;3.55;;;4.80;99.90;;;;;;2549023;23;20555;-75
2022/12/27 00:31:56;;;;;;;10.18;3.15;;;4.80;99.90;;;;;;2564048;23;20040;-75
2022/12/27 00:32:57;;;;;;;9.70;3.15;;;4.80;99.90;;;;;;2564436;23;20361;-75
2022/12/27 00:34:00;;;;;;;11.93;3.13;;;4.80;99.90;;;;;;2563283;23;20000;-75
2022/12/27 00:35:00;;;;;;;15.38;3.65;;;4.90;99.90;;;;;;2537355;23;20017;-74
2022/12/27 00:36:04;;;;;;;11.10;3.30;;;4.90;99.90;;;;;;2538777;23;20037;-74
2022/12/27 00:37:05;;;;;;;11.15;2.97;;;4.90;99.90;;;;;;2564266;23;20015;-74
2022/12/27 00:38:05;;;;;;;13.35;3.30;;;4.90;99.90;;;;;;2562058;23;20036;-75
2022/12/27 00:39:06;;;;;;;10.27;3.00;;;4.90;99.90;;;;;;2562247;23;20027;-74
2022/12/27 00:40:07;;;;;;;16.17;3.30;;;5.00;99.90;;;;;;2562215;23;20185;-74
2022/12/27 00:41:08;;;;;;;12.27;3.58;;;5.00;99.90;;;;;;2549139;23;20005;-73
2022/12/27 00:42:08;;;;;;;15.85;3.60;;;4.90;99.90;;;;;;2551514;23;20013;-73
2022/12/27 00:43:09;;;;;;;12.05;3.30;;;4.90;99.90;;;;;;2562851;23;20077;-74
2022/12/27 00:44:09;;;;;;;14.50;3.40;;;4.90;99.90;;;;;;2562652;23;20063;-74
2022/12/27 00:45:10;;;;;;;16.20;3.58;;;4.90;99.90;;;;;;2557096;23;20422;-74
2022/12/27 00:46:11;;;;;;;11.00;3.35;;;4.90;99.90;;;;;;2564899;23;20015;-74
2022/12/27 00:47:11;;;;;;;14.13;3.40;;;4.90;99.90;;;;;;2563019;23;20046;-74
2022/12/27 00:48:12;;;;;;;13.45;3.30;;;4.90;99.90;;;;;;2562797;23;20009;-74
2022/12/27 00:49:12;;;;;;;6.78;2.80;;;5.00;99.90;;;;;;2549780;23;20525;-74
2022/12/27 00:50:13;;;;;;;8.88;3.15;;;4.90;99.90;;;;;;2552056;23;20587;-75
2022/12/27 00:51:17;;;;;;;10.63;2.80;;;5.00;99.90;;;;;;2549517;23;20004;-76
2022/12/27 00:52:17;;;;;;;10.68;3.00;;;5.00;99.90;;;;;;2550411;23;20006;-76
2022/12/27 00:53:18;;;;;;;7.07;2.88;;;4.90;99.90;;;;;;2562921;23;20122;-76
2022/12/27 00:54:18;;;;;;;9.00;2.90;;;5.00;99.90;;;;;;2564946;23;20025;-76
2022/12/27 00:55:19;;;;;;;11.27;2.78;;;5.00;99.90;;;;;;2562747;23;20058;-76
2022/12/27 00:56:23;;;;;;;11.30;2.80;;;5.00;99.90;;;;;;2562882;23;20024;-76
2022/12/27 00:57:23;;;;;;;11.00;2.70;;;5.00;99.90;;;;;;2562631;23;20091;-75
2022/12/27 00:58:24;;;;;;;13.55;3.00;;;5.00;99.90;;;;;;2562645;23;20023;-75
2022/12/27 00:59:25;;;;;;;10.20;2.97;;;5.00;99.90;;;;;;2562712;23;20487;-76
2022/12/27 01:00:25;;;;;;;15.85;3.42;;;5.00;99.90;;;;;;2565190;23;20000;-77
2022/12/27 01:01:28;;;;;;;10.05;2.72;;;5.00;99.90;;;;;;2563020;23;20094;-75
2022/12/27 01:02:29;;;;;;;9.27;2.80;;;5.00;99.90;;;;;;2562138;23;20015;-76
2022/12/27 01:03:29;;;;;;;11.43;2.72;;;5.00;99.90;;;;;;2562020;23;20022;-76
2022/12/27 01:04:30;;;;;;;9.82;2.50;;;5.00;99.90;;;;;;2562836;23;20071;-76
2022/12/27 01:05:31;;;;;;;14.52;3.22;;;5.00;99.90;;;;;;2562671;23;20005;-75
2022/12/27 01:06:33;;;;;;;13.27;2.92;;;4.90;99.90;;;;;;2562920;23;20000;-75
2022/12/27 01:07:34;;;;;;;13.40;2.80;;;4.90;99.90;;;;;;2562907;23;20016;-75
2022/12/27 01:08:35;;;;;;;15.45;2.97;;;4.90;99.90;;;;;;2565109;23;20508;-75
2022/12/27 01:09:35;;;;;;;15.32;3.28;;;4.90;99.90;;;;;;2549537;23;20045;-76
2022/12/27 01:10:37;;;;;;;23.75;3.30;;;4.80;99.90;;;;;;2549740;23;20007;-76
2022/12/27 01:11:40;;;;;;;22.73;3.05;;;4.80;99.90;;;;;;2549718;23;20001;-74
2022/12/27 01:12:40;;;;;;;15.15;3.20;;;4.70;99.90;;;;;;2552152;23;20009;-77
2022/12/27 01:13:42;;;;;;;25.35;3.20;;;4.70;99.90;;;;;;2549997;23;20012;-76
2022/12/27 01:14:43;;;;;;;21.45;3.25;;;4.70;99.90;;;;;;2550557;23;20001;-76
2022/12/27 01:15:43;;;;;;;17.95;3.17;;;4.60;99.90;;;;;;2550132;23;20076;-76
2022/12/27 01:16:44;;;;;;;18.50;3.10;;;4.50;99.90;;;;;;2539905;23;20029;-75
2022/12/27 01:17:44;;;;;;;22.15;3.20;;;4.50;99.90;;;;;;2550343;23;20017;-75
2022/12/27 01:18:46;;;;;;;26.10;3.10;;;4.50;99.90;;;;;;2563579;23;20007;-75
2022/12/27 01:19:46;;;;;;;14.70;2.85;;;4.40;99.90;;;;;;2563251;23;20078;-76
2022/12/27 01:20:47;;;;;;;15.57;3.00;;;4.50;99.90;;;;;;2565498;23;20056;-75
2022/12/27 01:21:47;;;;;;;13.70;2.47;;;4.50;99.90;;;;;;2550178;23;20017;-75
2022/12/27 01:22:48;;;;;;;8.95;2.40;;;4.60;99.90;;;;;;2549555;23;20020;-74
2022/12/27 01:23:49;;;;;;;18.05;2.80;;;4.60;99.90;;;;;;2562184;23;20008;-75
2022/12/27 01:24:49;;;;;;;11.27;2.42;;;4.70;99.90;;;;;;2562209;23;20076;-75
2022/12/27 01:25:58;;;;;;;19.80;2.53;;;4.70;99.90;;;;;;2562745;23;20015;-76
2022/12/27 01:26:59;;;;;;;15.43;2.50;;;4.80;99.90;;;;;;2564408;23;20032;-75
2022/12/27 01:28:00;;;;;;;10.48;2.70;;;4.80;99.90;;;;;;2565963;23;20008;-75
2022/12/27 01:29:00;;;;;;;12.10;2.55;;;4.80;99.90;;;;;;2563482;23;20004;-74
2022/12/27 01:30:02;;;;;;;13.98;2.20;;;4.80;99.90;;;;;;2562884;23;20004;-74
2022/12/27 01:31:12;;;;;;;11.85;2.42;;;4.90;99.90;;;;;;2563172;23;20087;-74
2022/12/27 01:32:12;;;;;;;11.90;2.33;;;4.90;99.90;;;;;;2562851;23;20008;-74
2022/12/27 01:33:13;;;;;;;13.23;2.35;;;4.90;99.90;;;;;;2565279;23;20095;-74
2022/12/27 01:34:13;;;;;;;17.85;2.92;;;4.90;99.90;;;;;;2562971;23;20072;-74
2022/12/27 01:35:14;;;;;;;16.67;2.63;;;4.90;99.90;;;;;;2562926;23;20009;-73
2022/12/27 01:36:20;;;;;;;13.98;2.50;;;4.90;99.90;;;;;;2563564;23;20004;-74
2022/12/27 01:37:21;;;;;;;13.10;2.60;;;4.90;99.90;;;;;;2565185;23;20011;-74
2022/12/27 01:38:21;;;;;;;12.00;2.75;;;4.90;99.90;;;;;;2562489;23;20015;-74
2022/12/27 01:39:22;;;;;;;13.10;2.40;;;4.90;99.90;;;;;;2562655;23;20039;-73
2022/12/27 01:40:24;;;;;;;12.77;2.45;;;4.80;99.90;;;;;;2562697;23;20054;-73
2022/12/27 01:42:52;;;;;;;22.55;2.67;;;4.80;99.90;;;;;;2562909;23;20016;-74
2022/12/27 01:43:52;;;;;;;19.42;2.67;;;4.70;99.90;;;;;;2562337;23;20008;-74
2022/12/27 01:44:57;;;;;;;15.80;2.38;;;4.70;99.90;;;;;;2557548;23;20027;-74
2022/12/27 01:45:57;;;;;;;15.65;3.20;;;4.70;99.90;;;;;;2549570;23;20099;-74
2022/12/27 01:46:59;;;;;;;18.75;2.30;;;4.70;99.90;;;;;;2551626;23;20012;-74
2022/12/27 01:48:18;;;;;;;18.13;2.65;;;4.70;99.90;;;;;;2551524;23;20419;-76
2022/12/27 01:49:18;;;;;;;15.57;2.30;;;4.70;99.90;;;;;;2551651;23;20097;-75
2022/12/27 01:50:51;;;;;;;9.88;2.15;;;4.70;99.90;;;;;;2549273;23;20001;-75
2022/12/27 01:51:52;;;;;;;15.00;2.58;;;4.80;99.90;;;;;;2546297;23;20036;-75
2022/12/27 01:52:55;;;;;;;17.92;2.63;;;4.80;99.90;;;;;;2562224;23;20056;-73
2022/12/27 01:53:56;;;;;;;15.32;2.72;;;4.80;99.90;;;;;;2562884;23;20484;-73
2022/12/27 01:55:01;;;;;;;19.05;2.72;;;4.80;99.90;;;;;;2551831;23;20029;-73
2022/12/27 01:56:12;;;;;;;12.18;2.30;;;4.80;99.90;;;;;;2552714;23;20043;-73
2022/12/27 01:57:13;;;;;;;;;;;4.90;99.90;;;;;;2565490;23;20084;-73
2022/12/27 01:58:20;;;;;;;10.27;2.20;;;4.90;99.90;;;;;;2562598;23;20220;-74
2022/12/27 01:59:21;;;;;;;11.95;2.42;;;4.90;99.90;;;;;;2549517;23;20382;-73
2022/12/27 02:00:22;;;;;;;11.43;2.30;;;5.00;99.90;;;;;;2537311;23;20537;-73
2022/12/27 02:01:27;;;;;;;11.85;1.98;;;5.00;99.90;;;;;;2552015;23;20001;-73
2022/12/27 02:02:27;;;;;;;10.05;2.22;;;5.00;99.90;;;;;;2565143;23;20020;-73
2022/12/27 02:03:33;;;;;;;9.50;2.30;;;5.00;99.90;;;;;;2562938;23;20434;-73
2022/12/27 02:04:34;;;;;;;9.10;2.10;;;5.10;99.90;;;;;;2549361;23;20357;-73
2022/12/27 02:05:35;;;;;;;10.63;2.28;;;5.10;99.90;;;;;;2549350;23;20012;-73
2022/12/27 02:06:41;;;;;;;6.63;1.90;;;5.10;99.90;;;;;;2562973;23;20040;-73
2022/12/27 02:08:07;;;;;;;9.80;1.98;;;5.10;99.90;;;;;;2562968;23;20275;-72
2022/12/27 02:09:51;;;;;;;10.43;2.30;;;5.10;99.90;;;;;;2548375;23;20116;-73
2022/12/27 02:10:53;;;;;;;10.85;2.22;;;5.10;99.90;;;;;;2558879;23;20008;-73
2022/12/27 02:11:56;;;;;;;8.57;2.03;;;5.10;99.90;;;;;;2562614;23;20012;-73
2022/12/27 02:12:58;;;;;;;6.95;2.28;;;5.10;99.90;;;;;;2562510;23;20346;-72
2022/12/27 02:13:59;;;;;;;10.27;2.30;;;5.10;99.90;;;;;;2564822;23;20009;-75
2022/12/27 02:15:01;;;;;;;8.93;2.00;;;5.10;99.90;;;;;;2549385;23;20461;-74
2022/12/27 02:16:16;;;;;;;11.40;2.20;;;5.10;99.90;;;;;;2549615;23;20009;-75
2022/12/27 02:17:20;;;;;;;10.15;2.20;;;5.10;99.90;;;;;;2537128;23;20032;-72
2022/12/27 02:18:21;;;;;;;6.38;1.90;;;5.00;99.90;;;;;;2525204;23;20061;-74
2022/12/27 02:19:39;;;;;;;14.88;2.28;;;5.00;99.90;;;;;;2537039;23;20052;-74
2022/12/27 02:21:00;;;;;;;13.38;2.42;;;5.00;99.90;;;;;;2562974;23;20143;-72
2022/12/27 02:24:01;;;;;;;11.43;2.60;;;5.10;99.90;;;;;;2562784;23;20072;-74
2022/12/27 02:24:04;;;;;;;8.35;2.10;;;5.10;99.90;;;;;;2562312;23;20027;-73
2022/12/27 02:25:46;;;;;;;11.98;2.45;;;5.00;99.90;;;;;;2562410;23;20009;-73
2022/12/27 02:26:57;;;;;;;11.43;2.30;;;5.00;99.90;;;;;;2551103;23;20005;-73
2022/12/27 02:28:11;;;;;;;14.27;2.40;;;5.00;99.90;;;;;;2551401;23;20096;-71
2022/12/27 02:29:21;;;;;;;8.95;2.10;;;5.00;99.90;;;;;;2562543;23;20437;-74
2022/12/27 02:30:22;;;;;;;11.48;2.55;;;5.00;99.90;;;;;;2562655;23;20551;-74
2022/12/27 02:31:27;;;;;;;13.35;2.30;;;5.00;99.90;;;;;;2562703;23;20059;-75
2022/12/27 02:32:46;;;;;;;11.05;2.15;;;5.00;99.90;;;;;;2549525;23;20016;-74
2022/12/27 02:33:49;;;;;;;11.50;2.90;;;5.10;99.90;;;;;;2553262;23;20013;-74
2022/12/27 02:35:07;;;;;;;8.63;2.65;;;5.10;99.90;;;;;;2549445;23;20005;-74
2022/12/27 02:36:14;;;;;;;9.38;2.30;;;5.10;99.90;;;;;;2555084;23;20013;-74
2022/12/27 02:37:15;;;;;;;10.95;2.40;;;5.10;99.90;;;;;;2564454;23;20019;-74
2022/12/27 02:38:31;;;;;;;9.48;2.40;;;5.10;99.90;;;;;;2562168;23;20016;-74
2022/12/27 02:39:36;;;;;;;9.27;2.20;;;5.20;99.90;;;;;;2564571;23;19997;-74
2022/12/27 02:53:02;;;;;;;12.75;1.95;;;5.30;99.90;;;;;;2559080;23;20149;-75
2022/12/27 02:53:04;;;;;;;8.73;2.50;;;5.30;99.90;;;;;;2564593;23;20015;-75
2022/12/27 02:54:31;;;;;;;16.20;2.85;;;5.30;99.90;;;;;;2562626;23;20426;-74
2022/12/27 02:57:38;;;;;;;12.68;2.88;;;5.30;99.90;;;;;;2564735;23;20028;-75
2022/12/27 02:58:57;;;;;;;11.05;2.78;;;5.30;99.90;;;;;;2545006;23;20013;-75
2022/12/27 03:03:38;;;;;;;10.13;2.60;;;5.20;99.90;;;;;;2562485;23;20005;-74
2022/12/27 03:05:14;;;;;;;10.52;2.92;;;5.20;99.90;;;;;;2561352;23;20012;-74
2022/12/27 03:06:51;;;;;;;6.95;2.75;;;5.20;99.90;;;;;;2549212;23;20068;-74
2022/12/27 03:08:07;;;;;;;9.27;2.95;;;5.20;99.90;;;;;;2509262;23;20454;-75
2022/12/27 03:16:03;;;;;;;6.05;2.63;;;5.00;99.90;;;;;;2548843;23;20019;-73
2022/12/27 03:17:10;;;;;;;8.25;2.80;;;5.00;99.90;;;;;;2556078;23;20014;-73
2022/12/27 03:18:18;;;;;;;9.13;2.95;;;5.00;99.90;;;;;;2536499;23;20061;-73
2022/12/27 03:26:08;;;;;;;9.65;2.80;;;4.80;99.90;;;;;;2564765;23;20005;-73
2022/12/27 03:27:19;;;;;;;8.20;2.70;;;4.80;99.90;;;;;;2562508;23;20023;-73
2022/12/27 03:33:11;;;;;;;7.32;2.83;;;4.90;99.90;;;;;;2562546;23;20001;-75
2022/12/27 03:34:31;;;;;;;10.13;3.20;;;4.80;99.90;;;;;;2564326;23;20005;-75
2022/12/27 03:35:39;;;;;;;10.18;3.00;;;4.80;99.90;;;;;;2548903;23;20000;-75
2022/12/27 03:38:02;;;;;;;7.88;2.85;;;4.80;99.90;;;;;;2548862;23;20413;-75
2022/12/27 03:39:32;;;;;;;9.25;2.70;;;4.80;99.90;;;;;;2549764;23;20042;-75
2022/12/27 03:43:41;;;;;;;6.50;2.42;;;4.80;99.90;;;;;;2548554;23;20005;-74
2022/12/27 03:44:42;;;;;;;9.32;2.80;;;4.70;99.90;;;;;;2546234;23;20308;-75
2022/12/27 03:47:26;;;;;;;9.50;2.88;;;4.60;99.90;;;;;;2564288;23;19997;-75
2022/12/27 03:48:32;;;;;;;6.40;2.53;;;4.60;99.90;;;;;;2563732;23;20059;-74
2022/12/27 03:49:43;;;;;;;11.02;3.10;;;4.60;99.90;;;;;;2551222;23;20277;-74
2022/12/27 03:50:51;;;;;;;7.55;3.00;;;4.50;99.90;;;;;;2541361;23;20014;-75
2022/12/27 03:52:04;;;;;;;7.80;2.63;;;4.50;99.90;;;;;;2552858;23;20005;-74
2022/12/27 03:53:33;;;;;;;8.55;2.50;;;4.40;99.90;;;;;;2564513;23;20092;-74
2022/12/27 03:54:37;;;;;;;10.52;3.22;;;4.40;99.90;;;;;;2562791;23;20013;-74
2022/12/27 03:55:38;;;;;;;10.00;3.30;;;4.40;99.90;;;;;;2562578;23;20046;-75
2022/12/27 03:56:41;;;;;;;8.77;3.10;;;4.40;99.90;;;;;;2562800;23;20012;-75
2022/12/27 03:57:42;;;;;;;7.78;2.92;;;4.40;99.90;;;;;;2564942;23;20012;-75
2022/12/27 03:58:42;;;;;;;9.45;3.10;;;4.50;99.90;;;;;;2562758;23;20706;-74
2022/12/27 03:59:43;;;;;;;8.75;3.08;;;4.50;99.90;;;;;;2562718;23;20009;-75
2022/12/27 04:00:44;;;;;;;8.30;3.20;;;4.50;99.90;;;;;;2562552;23;20008;-75
2022/12/27 04:01:44;;;;;;;7.65;3.08;;;4.50;99.90;;;;;;2564402;23;19997;-75
2022/12/27 04:02:45;;;;;;;9.82;3.30;;;4.60;99.90;;;;;;2562527;23;20331;-75
2022/12/27 04:03:45;;;;;;;8.93;3.08;;;4.60;99.90;;;;;;2549070;23;20013;-75
2022/12/27 04:04:47;;;;;;;8.05;2.90;;;4.60;99.90;;;;;;2549560;23;20005;-75
2022/12/27 04:05:48;;;;;;;7.75;2.83;;;4.60;99.90;;;;;;2549641;23;20347;-75
2022/12/27 04:06:48;;;;;;;6.65;3.30;;;4.60;99.90;;;;;;2551670;23;20453;-75
2022/12/27 04:35:37;;;;;;;11.30;3.55;;;4.10;99.90;;;;;;2553805;23;20435;-73
2022/12/27 04:36:38;;;;;;;8.57;3.70;;;4.10;99.90;;;;;;2565296;23;20016;-72
2022/12/27 04:37:38;;;;;;;6.22;3.83;;;4.10;99.90;;;;;;2549699;23;20005;-73
2022/12/27 04:38:39;;;;;;;7.18;3.53;;;4.00;99.90;;;;;;2537692;23;20043;-74
2022/12/27 04:39:40;;;;;;;9.32;3.90;;;4.00;99.90;;;;;;2549605;23;20233;-74
2022/12/27 04:55:23;;;;;;;7.75;3.70;;;3.70;99.90;;;;;;2562932;23;20079;-73
2022/12/27 04:56:24;;;;;;;8.98;3.40;;;3.60;99.90;;;;;;2549771;23;20458;-73
2022/12/27 04:57:26;;;;;;;9.40;3.65;;;3.60;99.90;;;;;;2549825;23;20012;-73
2022/12/27 04:58:27;;;;;;;7.95;3.75;;;3.60;99.90;;;;;;2564939;23;20019;-74
2022/12/27 05:02:06;;;;;;;10.90;3.50;;;3.60;99.90;;;;;;2562842;23;20297;-73
2022/12/27 05:03:14;;;;;;;8.25;3.08;;;3.60;99.90;;;;;;2551784;23;20327;-73
2022/12/27 05:04:15;;;;;;;6.55;3.30;;;3.70;99.90;;;;;;2553524;23;20000;-73
2022/12/27 05:05:16;;;;;;;7.05;3.42;;;3.70;99.90;;;;;;2562980;23;20079;-73
2022/12/27 05:06:17;;;;;;;9.98;3.50;;;3.70;99.90;;;;;;2562916;23;20011;-74
2022/12/27 05:13:59;;;;;;;8.98;3.10;;;3.90;99.90;;;;;;2563051;23;20774;-73
2022/12/27 05:14:59;;;;;;;7.53;3.10;;;4.00;99.90;;;;;;2550544;23;20303;-73
2022/12/27 05:16:00;;;;;;;7.32;3.08;;;4.00;99.90;;;;;;2551832;23;20053;-75
2022/12/27 05:17:01;;;;;;;5.60;2.92;;;4.00;99.90;;;;;;2562795;23;20249;-73
2022/12/27 05:18:01;;;;;;;6.95;3.20;;;4.10;99.90;;;;;;2549488;23;20009;-73
2022/12/27 05:19:04;;;;;;;7.40;2.90;;;4.10;99.90;;;;;;2549692;23;20485;-72
2022/12/27 05:20:05;;;;;;;7.57;3.20;;;4.10;99.90;;;;;;2562786;23;20008;-73
2022/12/27 05:21:06;;;;;;;5.72;2.88;;;4.10;99.90;;;;;;2536902;23;20092;-73
2022/12/27 05:26:04;;;;;;;7.28;2.75;;;4.20;99.90;;;;;;2551700;23;20316;-74
2022/12/27 05:27:05;;;;;;;5.70;2.90;;;4.20;99.90;;;;;;2549644;23;20091;-73
2022/12/27 05:28:08;;;;;;;6.05;2.97;;;4.20;99.90;;;;;;2562605;23;20100;-72
2022/12/27 05:29:09;;;;;;;8.02;2.90;;;4.20;99.90;;;;;;2561959;23;20012;-73
2022/12/27 05:30:10;;;;;;;5.82;2.80;;;4.20;99.90;;;;;;2562137;23;20001;-72
2022/12/27 05:31:10;;;;;;;5.68;2.80;;;4.20;99.90;;;;;;2563012;23;20004;-73
2022/12/27 05:32:11;;;;;;;7.47;3.03;;;4.20;99.90;;;;;;2551852;23;20092;-78
2022/12/27 05:33:12;;;;;;;6.05;2.60;;;4.30;99.90;;;;;;2537577;23;20040;-68
2022/12/27 05:34:12;;;;;;;5.50;2.60;;;4.30;99.90;;;;;;2549914;23;20115;-65
2022/12/27 05:35:13;;;;;;;7.60;2.78;;;4.30;99.90;;;;;;2564787;23;20417;-66
2022/12/27 05:36:13;;;;;;;6.22;2.67;;;4.30;99.90;;;;;;2562980;23;20072;-66
2022/12/27 05:37:14;;;;;;;6.68;2.40;;;4.30;99.90;;;;;;2562866;23;20504;-66
2022/12/27 05:38:14;;;;;;;6.53;2.60;;;4.30;99.90;;;;;;2562919;23;20447;-66
2022/12/27 05:39:15;;;;;;;6.80;2.65;;;4.40;99.90;;;;;;2562578;23;20739;-66
2022/12/27 05:40:16;;;;;;;5.68;2.35;;;4.30;99.90;;;;;;2565116;23;19996;-66
2022/12/27 05:41:17;;;;;;;4.90;2.60;;;4.40;99.90;;;;;;2565059;23;19996;-67
2022/12/27 05:42:17;;;;;;;5.85;2.28;;;4.40;99.90;;;;;;2562841;23;20043;-67
2022/12/27 05:43:18;;;;;;;5.13;2.22;;;4.40;99.90;;;;;;2562956;23;20024;-67
2022/12/27 05:44:18;;;;;;;7.43;2.50;;;4.40;99.90;;;;;;2564851;23;20000;-67
2022/12/27 05:45:19;;;;;;;6.07;2.28;;;4.40;99.90;;;;;;2557054;23;20000;-67
2022/12/27 05:46:21;;;;;;;7.63;2.60;;;4.40;99.90;;;;;;2562861;23;20066;-67
2022/12/27 05:47:21;;;;;;;6.43;2.50;;;4.40;99.90;;;;;;2564030;23;20006;-68
2022/12/27 05:48:22;;;;;;;5.07;2.40;;;4.40;99.90;;;;;;2566052;23;20001;-68
2022/12/27 05:49:23;;;;;;;5.28;2.28;;;4.40;99.90;;;;;;2567973;23;20015;-67
2022/12/27 05:50:23;;;;;;;6.05;2.30;;;4.50;99.90;;;;;;2552917;23;20077;-67
2022/12/27 05:51:24;;;;;;;6.50;2.58;;;4.50;99.90;;;;;;2552939;23;20076;-67
2022/12/27 05:52:24;;;;;;;4.70;2.28;;;4.50;99.90;;;;;;2564905;23;20091;-67
2022/12/27 05:53:25;;;;;;;6.10;2.50;;;4.50;99.90;;;;;;2553080;23;20084;-70
2022/12/27 05:54:26;;;;;;;4.30;2.10;;;4.50;99.90;;;;;;2550904;23;20478;-68
2022/12/27 05:55:26;;;;;;;4.75;2.30;;;4.50;99.90;;;;;;2563758;23;20017;-68
2022/12/27 05:56:27;;;;;;;6.80;2.40;;;4.50;99.90;;;;;;2537044;23;20076;-69
2022/12/27 05:57:27;;;;;;;6.15;2.28;;;4.50;99.90;;;;;;2539701;23;20094;-68
2022/12/27 05:58:29;;;;;;;5.63;2.28;;;4.50;99.90;;;;;;2549035;23;20020;-69
2022/12/27 05:59:30;;;;;;;6.63;2.30;;;4.50;99.90;;;;;;2549906;23;20028;-68
2022/12/27 06:00:31;;;;;;;6.88;2.28;;;4.50;99.90;;;;;;2549499;23;20028;-68
2022/12/27 06:01:32;;;;;;;6.85;2.20;;;4.50;99.90;;;;;;2539568;23;20056;-68
2022/12/27 06:02:32;;;;;;;4.43;2.10;;;4.50;99.90;;;;;;2549634;23;20039;-69
2022/12/27 06:03:33;;;;;;;4.28;2.10;;;4.50;99.90;;;;;;2549392;23;20418;-68
2022/12/27 06:04:34;;;;;;;4.53;2.20;;;4.50;99.90;;;;;;2549758;23;20029;-68
2022/12/27 06:05:34;;;;;;;5.60;2.05;;;4.50;99.90;;;;;;2549387;23;20531;-69
2022/12/27 06:06:35;;;;;;;5.75;2.15;;;4.50;99.90;;;;;;2538910;23;20084;-69
2022/12/27 06:07:36;;;;;;;4.68;2.10;;;4.50;99.90;;;;;;2549391;23;20009;-69
2022/12/27 06:08:38;;;;;;;4.85;2.40;;;4.60;99.90;;;;;;2549632;23;20001;-69
2022/12/27 06:09:39;;;;;;;6.15;2.00;;;4.60;99.90;;;;;;2549301;23;20013;-69
2022/12/27 06:10:40;;;;;;;6.47;2.40;;;4.60;99.90;;;;;;2551709;23;20032;-69
2022/12/27 06:11:40;;;;;;;4.95;2.30;;;4.60;99.90;;;;;;2549357;23;20067;-69
2022/12/27 06:12:41;;;;;;;6.78;2.30;;;4.60;99.90;;;;;;2562916;23;20009;-68
2022/12/27 06:13:46;;;;;;;4.15;2.10;;;4.60;99.90;;;;;;2549304;23;20067;-68
2022/12/27 06:14:47;;;;;;;6.45;2.28;;;4.60;99.90;;;;;;2551017;23;20016;-69
2022/12/27 06:15:48;;;;;;;4.10;2.10;;;4.60;99.90;;;;;;2564718;23;20099;-68
2022/12/27 06:16:48;;;;;;;5.53;2.10;;;4.50;99.90;;;;;;2562578;23;20115;-68
2022/12/27 06:17:49;;;;;;;6.35;2.17;;;4.50;99.90;;;;;;2562513;23;20005;-68
2022/12/27 06:18:49;;;;;;;4.28;2.20;;;4.50;99.90;;;;;;2565071;23;20000;-69
2022/12/27 06:19:50;;;;;;;9.27;2.33;;;4.50;99.90;;;;;;2549189;23;20415;-68
2022/12/27 06:20:50;;;;;;;4.70;2.10;;;4.50;99.90;;;;;;2549599;23;20449;-68
2022/12/27 06:21:51;;;;;;;4.65;2.17;;;4.50;99.90;;;;;;2562735;23;20008;-69
2022/12/27 06:22:51;;;;;;;5.38;2.08;;;4.50;99.90;;;;;;2551189;23;20033;-70
2022/12/27 06:23:52;;;;;;;5.25;2.25;;;4.50;99.90;;;;;;2549626;23;20017;-68
2022/12/27 06:24:52;;;;;;;5.00;2.40;;;4.40;99.90;;;;;;2562610;23;20062;-68
2022/12/27 06:25:53;;;;;;;7.20;2.17;;;4.40;99.90;;;;;;2549117;23;20112;-69
2022/12/27 06:26:53;;;;;;;5.97;2.65;;;4.30;99.90;;;;;;2551717;23;20496;-68
2022/12/27 06:27:54;;;;;;;5.72;2.20;;;4.30;99.90;;;;;;2562476;23;20013;-68
2022/12/27 06:28:57;;;;;;;6.68;2.28;;;4.30;99.90;;;;;;2562508;23;20011;-68
2022/12/27 06:29:57;;;;;;;4.97;2.10;;;4.20;99.90;;;;;;2562552;23;20016;-69
2022/12/27 06:30:59;;;;;;;7.80;2.40;;;4.20;99.90;;;;;;2562443;23;20404;-68
2022/12/27 06:32:00;;;;;;;6.32;2.30;;;4.20;99.90;;;;;;2549256;23;20093;-68
2022/12/27 06:33:00;;;;;;;6.70;2.40;;;4.20;99.90;;;;;;2549103;23;20042;-68
2022/12/27 06:34:01;;;;;;;6.47;2.40;;;4.10;99.90;;;;;;2551198;23;20004;-70
2022/12/27 06:35:01;;;;;;;6.88;2.10;;;4.10;99.90;;;;;;2549589;23;20013;-68
2022/12/27 06:36:10;;;;;;;5.63;2.20;;;4.10;99.90;;;;;;2562394;23;20001;-68
2022/12/27 06:37:11;;;;;;;6.80;2.50;;;4.10;99.90;;;;;;2562544;23;20423;-68
2022/12/27 06:38:12;;;;;;;5.00;2.42;;;4.00;99.90;;;;;;2564642;23;20024;-69
2022/12/27 06:39:12;;;;;;;8.50;2.50;;;4.00;99.90;;;;;;2562530;23;20001;-69
2022/12/27 06:40:13;;;;;;;6.55;2.35;;;4.00;99.90;;;;;;2562388;23;20032;-69
2022/12/27 06:41:16;;;;;;;5.72;2.40;;;3.90;99.90;;;;;;2549355;23;20001;-69
2022/12/27 06:42:16;;;;;;;5.78;2.55;;;3.90;99.90;;;;;;2552001;23;20005;-69
2022/12/27 06:43:17;;;;;;;6.95;2.38;;;3.90;99.90;;;;;;2561669;23;20051;-70
2022/12/27 06:44:17;;;;;;;6.68;2.28;;;3.90;99.90;;;;;;2561294;23;20261;-69
2022/12/27 06:45:18;;;;;;;5.75;2.22;;;3.90;99.90;;;;;;2556341;23;20023;-69
2022/12/27 06:46:18;;;;;;;6.22;2.40;;;3.90;99.90;;;;;;2562620;23;20005;-70
2022/12/27 06:47:19;;;;;;;8.00;2.50;;;3.90;99.90;;;;;;2564486;23;20009;-70
2022/12/27 06:48:19;;;;;;;6.75;2.42;;;3.90;99.90;;;;;;2562484;23;20097;-69
2022/12/27 06:49:20;;;;;;;6.47;2.28;;;3.90;99.90;;;;;;2549011;23;19998;-69
2022/12/27 06:50:21;;;;;;;5.38;2.33;;;3.80;99.90;;;;;;2549349;23;20179;-70
2022/12/27 06:51:21;;;;;;;6.60;2.53;;;3.80;99.90;;;;;;2551103;23;20044;-69
2022/12/27 06:52:22;;;;;;;5.80;2.38;;;3.80;99.90;;;;;;2548993;23;20001;-69
2022/12/27 06:53:22;;;;;;;7.93;2.50;;;3.80;99.90;;;;;;2549027;23;20009;-69
2022/12/27 06:54:23;;;;;;;5.78;2.55;;;3.80;99.90;;;;;;2548975;23;20009;-70
2022/12/27 06:55:24;;;;;;;8.02;2.63;;;3.80;99.90;;;;;;2551154;23;20001;-69
2022/12/27 06:56:24;;;;;;;5.30;2.17;;;3.80;99.90;;;;;;2550421;23;20009;-69
2022/12/27 06:57:25;;;;;;;5.65;2.47;;;3.80;99.90;;;;;;2562013;23;20028;-69
2022/12/27 06:58:25;;;;;;;7.63;2.55;;;3.80;99.90;;;;;;2549002;23;20013;-69
2022/12/27 06:59:26;;;;;;;8.38;2.63;;;3.80;99.90;;;;;;2551313;23;20586;-69
2022/12/27 07:00:26;;;;;;;6.53;2.45;;;3.80;99.90;;;;;;2549183;23;20330;-69
2022/12/27 07:01:27;;;;;;;4.05;2.17;;;3.80;99.90;;;;;;2549494;23;20005;-69
2022/12/27 07:02:28;;;;;;;6.15;2.10;;;3.80;99.90;;;;;;2549349;23;20012;-70
2022/12/27 07:03:28;;;;;;;7.57;2.47;;;3.80;99.90;;;;;;2551375;23;20009;-69
2022/12/27 07:04:29;;;;;;;5.18;2.30;;;3.80;99.90;;;;;;2549075;23;20445;-68
2022/12/27 07:05:29;;;;;;;6.78;2.40;;;3.80;99.90;;;;;;2536833;23;20028;-69
2022/12/27 07:06:30;;;;;;;4.90;2.42;;;3.80;99.90;;;;;;2549360;23;20296;-66
2022/12/27 07:07:31;;;;;;;6.95;2.53;;;3.90;99.90;;;;;;2564274;23;20051;-68
2022/12/27 07:08:33;;;;;;;7.00;2.30;;;3.90;99.90;;;;;;2562299;23;20008;-68
2022/12/27 07:09:33;;;;;;;6.45;2.38;;;3.90;99.90;;;;;;2562126;23;20043;-67
2022/12/27 07:10:36;;;;;;;8.13;2.10;;;3.90;99.90;;;;;;2549243;23;20454;-68